Time;durP1;ratioP1;P1;durP2;ratioP2;P2;SDS_P1;SDS_P2;PMS_P1;PMS_P2;Temp;Humidity;BMP_temperature;BMP_pressure;BME280_temperature;BME280_humidity;BME280_pressure;Samples;Min_cycle;Max_cycle;Signal;HPM_P1;HPM_P2
2022/04/14 00:02:09;;;;;;;8.02;5.40;;;;;;;16.83;60.43;100672.72;5056064;28;20064;-81
2022/04/14 00:04:36;;;;;;;6.03;5.30;;;;;;;16.84;60.46;100680.00;5055567;28;20132;-82
2022/04/14 00:07:06;;;;;;;6.65;5.28;;;;;;;16.81;60.65;100680.69;5055347;28;20053;-82
2022/04/14 00:09:35;;;;;;;8.10;6.10;;;;;;;16.81;61.13;100681.50;5055222;28;20052;-82
2022/04/14 00:12:03;;;;;;;10.63;6.90;;;;;;;16.84;61.35;100674.38;5055340;28;20053;-81
2022/04/14 00:14:32;;;;;;;8.57;5.97;;;;;;;16.78;61.87;100687.00;5054735;28;20471;-81
2022/04/14 00:16:59;;;;;;;9.38;6.05;;;;;;;16.75;62.57;100687.69;5055030;28;20065;-80
2022/04/14 00:19:27;;;;;;;6.85;5.78;;;;;;;16.70;62.55;100691.56;5055320;28;20485;-82
2022/04/14 00:21:54;;;;;;;7.10;5.90;;;;;;;16.69;62.71;100691.91;5054536;28;20060;-82
2022/04/14 00:24:21;;;;;;;6.55;5.85;;;;;;;16.71;63.19;100698.00;5054960;28;20053;-82
2022/04/14 00:26:48;;;;;;;9.82;6.97;;;;;;;16.69;63.05;100700.34;5055783;28;20076;-82
2022/04/14 00:29:16;;;;;;;7.38;6.07;;;;;;;16.66;63.03;100701.88;5055780;28;20060;-81
2022/04/14 00:31:45;;;;;;;8.48;6.70;;;;;;;16.63;62.67;100689.31;5055228;28;20045;-82
2022/04/14 00:34:12;;;;;;;8.68;6.18;;;;;;;16.59;63.59;100685.56;5058021;28;20511;-82
2022/04/14 00:36:40;;;;;;;7.18;5.35;;;;;;;16.59;63.57;100682.75;5059184;28;20068;-81
2022/04/14 00:39:09;;;;;;;7.50;4.93;;;;;;;16.56;63.18;100683.44;5058832;28;20061;-81
2022/04/14 00:41:37;;;;;;;5.13;4.60;;;;;;;16.54;63.77;100679.34;5059021;28;20049;-82
2022/04/14 00:44:05;;;;;;;6.40;4.60;;;;;;;16.55;63.64;100673.38;5059798;28;20049;-81
2022/04/14 00:46:33;;;;;;;4.68;4.10;;;;;;;16.54;63.62;100673.72;5058886;28;20045;-81
2022/04/14 00:49:02;;;;;;;8.30;4.07;;;;;;;16.51;63.60;100672.44;5058844;28;20084;-82
2022/04/14 00:51:30;;;;;;;6.47;4.07;;;;;;;16.48;63.92;100672.31;5059051;28;20413;-81
2022/04/14 00:53:57;;;;;;;6.07;4.72;;;;;;;16.44;64.45;100673.03;5058044;28;20390;-82
2022/04/14 00:56:25;;;;;;;6.75;5.18;;;;;;;16.41;64.92;100672.88;5058516;28;20049;-82
2022/04/14 00:58:52;;;;;;;8.32;5.70;;;;;;;16.38;64.83;100668.78;5058997;28;20057;-82
2022/04/14 01:01:20;;;;;;;6.15;5.07;;;;;;;16.35;65.40;100669.47;5058639;28;20516;-82
2022/04/14 01:03:49;;;;;;;6.40;5.70;;;;;;;16.35;65.41;100674.28;5059261;28;20053;-82
2022/04/14 01:06:21;;;;;;;8.23;5.78;;;;;;;16.33;65.87;100676.63;5058779;28;20052;-82
2022/04/14 01:11:30;;;;;;;8.30;6.38;;;;;;;16.31;65.61;100667.72;5037468;28;20418;-82
2022/04/14 01:13:58;;;;;;;8.90;6.85;;;;;;;16.27;65.51;100658.34;5058772;28;20055;-82
2022/04/14 01:16:26;;;;;;;9.63;6.43;;;;;;;16.22;66.02;100654.59;5059033;28;20052;-82
2022/04/14 01:18:54;;;;;;;9.83;6.87;;;;;;;16.16;66.48;100661.59;5058612;28;20053;-82
2022/04/14 01:21:22;;;;;;;8.07;6.85;;;;;;;16.09;66.95;100661.34;5058177;28;20064;-81
2022/04/14 01:23:52;;;;;;;11.13;7.60;;;;;;;16.06;67.13;100658.41;5058397;28;20048;-82
2022/04/14 01:26:20;;;;;;;;;;;;;;;15.99;67.33;100653.38;5058789;28;20056;-81
2022/04/14 01:28:47;;;;;;;8.25;5.88;;;;;;;15.97;67.22;100647.28;5058967;28;19920;-81
2022/04/14 01:31:14;;;;;;;9.25;6.95;;;;;;;15.99;67.27;100654.19;5058479;28;20060;-81
2022/04/14 01:33:42;;;;;;;10.18;7.57;;;;;;;15.98;67.12;100654.50;5058354;28;20049;-81
2022/04/14 01:36:09;;;;;;;9.30;7.10;;;;;;;15.96;67.48;100645.66;5057440;28;20494;-81
2022/04/14 01:38:39;;;;;;;9.45;7.28;;;;;;;15.92;67.87;100648.31;5056971;28;20053;-80
2022/04/14 01:41:08;;;;;;;8.63;7.18;;;;;;;15.88;67.70;100643.75;5057233;28;20060;-82
2022/04/14 01:43:38;;;;;;;9.15;7.53;;;;;;;15.86;67.84;100641.28;5058008;28;20405;-82
2022/04/14 01:46:08;;;;;;;8.07;7.15;;;;;;;15.81;68.39;100644.28;5056908;28;20045;-82
2022/04/14 01:48:38;;;;;;;11.60;7.90;;;;;;;15.77;68.35;100649.78;5057982;28;20049;-82
2022/04/14 01:51:06;;;;;;;11.05;7.68;;;;;;;15.77;68.34;100648.94;5057933;28;20045;-82
2022/04/14 01:53:33;;;;;;;10.15;7.47;;;;;;;15.76;68.50;100650.13;5057732;28;20049;-81
2022/04/14 01:56:01;;;;;;;10.48;7.43;;;;;;;15.75;68.62;100660.53;5057050;28;20053;-82
2022/04/14 01:58:32;;;;;;;10.85;7.93;;;;;;;15.74;68.47;100655.25;5057680;28;20053;-81
2022/04/14 02:00:59;;;;;;;8.85;7.07;;;;;;;15.71;68.45;100662.38;5057804;28;20053;-82
2022/04/14 02:03:27;;;;;;;9.77;7.70;;;;;;;15.68;68.51;100663.03;5057274;28;20053;-80
2022/04/14 02:05:54;;;;;;;10.07;6.60;;;;;;;15.67;68.78;100664.22;5056859;28;20402;-82
2022/04/14 02:08:22;;;;;;;9.15;7.53;;;;;;;15.66;68.81;100664.56;5056253;28;20412;-80
2022/04/14 02:10:49;;;;;;;10.95;7.50;;;;;;;15.68;69.08;100667.84;5056581;28;20497;-82
2022/04/14 02:13:16;;;;;;;9.63;7.85;;;;;;;15.66;69.04;100665.38;5056749;28;20052;-82
2022/04/14 02:15:45;;;;;;;11.35;8.35;;;;;;;15.65;69.27;100674.16;5057703;28;20416;-82
2022/04/14 02:18:12;;;;;;;8.33;7.53;;;;;;;15.58;69.32;100675.53;5057884;28;20060;-83
2022/04/14 02:20:40;;;;;;;10.38;8.60;;;;;;;15.57;69.67;100678.69;5056727;28;20049;-81
2022/04/14 02:23:07;;;;;;;10.93;8.35;;;;;;;15.54;69.83;100668.13;5056507;28;20049;-81
2022/04/14 02:25:34;;;;;;;12.50;9.82;;;;;;;15.51;69.89;100661.22;5056233;28;20049;-81
2022/04/14 02:28:01;;;;;;;10.15;9.02;;;;;;;15.51;69.89;100660.41;5056859;28;20080;-81
2022/04/14 02:30:29;;;;;;;9.20;7.60;;;;;;;15.51;69.99;100661.22;5056939;28;20049;-80
2022/04/14 02:32:58;;;;;;;10.60;8.20;;;;;;;15.49;70.19;100665.53;5055912;28;20057;-80
2022/04/14 02:35:25;;;;;;;12.07;9.77;;;;;;;15.49;69.81;100668.34;5056628;28;20049;-81
2022/04/14 02:37:55;;;;;;;9.52;8.57;;;;;;;15.46;70.14;100666.22;5056503;28;20052;-82
2022/04/14 02:40:23;;;;;;;11.25;9.13;;;;;;;15.40;70.07;100674.84;5056923;28;20075;-82
2022/04/14 02:42:53;;;;;;;10.60;9.38;;;;;;;15.37;70.13;100674.69;5058034;28;20052;-82
2022/04/14 02:45:20;;;;;;;;;;;;;;;15.34;70.41;100670.59;5057845;28;20064;-82
2022/04/14 02:47:48;;;;;;;9.88;8.45;;;;;;;15.36;69.90;100670.25;5057017;28;19924;-82
2022/04/14 02:50:19;;;;;;;9.20;8.27;;;;;;;15.34;69.94;100667.78;5057323;28;20512;-82
2022/04/14 02:52:47;;;;;;;10.38;8.52;;;;;;;15.34;69.90;100670.59;5039188;28;20513;-81
2022/04/14 02:55:14;;;;;;;11.88;7.72;;;;;;;15.31;69.55;100664.88;5057334;28;20643;-82
2022/04/14 02:57:42;;;;;;;9.88;8.23;;;;;;;15.22;69.98;100667.72;5057599;28;20060;-82
2022/04/14 03:00:11;;;;;;;10.52;8.50;;;;;;;15.16;69.81;100667.09;5057452;28;20052;-82
2022/04/14 03:02:43;;;;;;;9.03;8.13;;;;;;;15.14;70.35;100671.41;5057333;28;20045;-82
2022/04/14 03:05:11;;;;;;;10.73;8.40;;;;;;;15.12;70.44;100666.16;5057209;28;20057;-82
2022/04/14 03:07:43;;;;;;;9.43;8.40;;;;;;;15.11;70.57;100655.25;5056767;28;20057;-82
2022/04/14 03:10:10;;;;;;;9.13;7.93;;;;;;;15.08;70.61;100661.56;5058453;28;20049;-82
2022/04/14 03:12:46;;;;;;;12.25;8.65;;;;;;;15.09;70.58;100663.19;5056080;28;20049;-82
2022/04/14 03:15:14;;;;;;;11.40;8.27;;;;;;;15.07;70.61;100665.50;5056800;28;20064;-82
2022/04/14 03:17:42;;;;;;;9.75;7.45;;;;;;;15.04;70.55;100655.00;5056311;28;20060;-82
2022/04/14 03:20:11;;;;;;;11.35;8.40;;;;;;;15.02;70.33;100644.91;5056296;28;20064;-81
2022/04/14 03:22:42;;;;;;;12.23;8.00;;;;;;;15.01;70.70;100646.09;5056706;28;20501;-82
2022/04/14 03:25:11;;;;;;;9.90;8.35;;;;;;;14.98;71.13;100645.94;5056502;28;20072;-81
2022/04/14 03:27:39;;;;;;;10.43;8.23;;;;;;;14.95;70.86;100644.66;5056802;28;20406;-82
2022/04/14 03:30:08;;;;;;;13.35;8.98;;;;;;;14.94;71.11;100640.19;5057253;28;20057;-82
2022/04/14 03:32:40;;;;;;;10.77;9.23;;;;;;;14.93;71.31;100638.56;5056346;28;20049;-82
2022/04/14 03:35:08;;;;;;;13.88;8.95;;;;;;;14.96;71.26;100642.66;5056567;28;20067;-82
2022/04/14 03:37:36;;;;;;;10.20;7.72;;;;;;;14.96;71.49;100648.25;5055681;28;20056;-82
2022/04/14 03:40:06;;;;;;;10.70;9.50;;;;;;;14.96;71.52;100659.47;5056316;28;20465;-82
2022/04/14 03:42:33;;;;;;;10.40;8.68;;;;;;;14.95;71.76;100658.66;5057071;28;20057;-82
2022/04/14 03:45:01;;;;;;;17.38;11.65;;;;;;;14.93;71.69;100655.38;5056036;28;20059;-82
2022/04/14 03:47:28;;;;;;;15.13;10.07;;;;;;;14.87;72.05;100653.13;5056169;28;20060;-81
2022/04/14 03:49:55;;;;;;;10.60;9.20;;;;;;;14.89;71.92;100656.38;5055698;28;20049;-81
2022/04/14 03:52:23;;;;;;;15.20;10.38;;;;;;;14.89;72.11;100657.22;5056082;28;20052;-82
2022/04/14 03:54:53;;;;;;;11.85;9.07;;;;;;;14.82;72.21;100659.72;5055303;28;20512;-82
2022/04/14 03:57:22;;;;;;;10.93;9.82;;;;;;;14.85;71.87;100652.63;5055976;28;20115;-82
2022/04/14 03:59:49;;;;;;;12.52;10.10;;;;;;;14.75;71.66;100645.41;5055598;28;20060;-82
2022/04/14 04:02:17;;;;;;;12.43;10.27;;;;;;;14.79;71.57;100652.00;5055672;28;20060;-82
2022/04/14 04:04:44;;;;;;;12.63;10.32;;;;;;;14.80;72.00;100653.63;5056338;28;20060;-82
2022/04/14 04:07:12;;;;;;;13.25;10.18;;;;;;;14.78;71.97;100653.13;5054755;28;20045;-82
2022/04/14 04:09:39;;;;;;;12.10;10.32;;;;;;;14.80;72.05;100656.44;5054725;28;20055;-82
2022/04/14 04:12:08;;;;;;;11.85;10.05;;;;;;;14.80;71.74;100657.28;5055815;28;20049;-82
2022/04/14 04:14:36;;;;;;;11.55;9.77;;;;;;;14.80;71.88;100653.63;5055180;28;20378;-81
2022/04/14 04:17:05;;;;;;;14.45;12.02;;;;;;;14.63;72.46;100664.94;5055612;28;20075;-82
2022/04/14 04:19:32;;;;;;;12.80;10.70;;;;;;;14.69;72.26;100666.41;5056585;28;20052;-82
2022/04/14 04:22:02;;;;;;;14.50;10.32;;;;;;;14.72;72.49;100660.94;5056443;28;20049;-82
2022/04/14 04:24:29;;;;;;;15.15;10.75;;;;;;;14.72;72.05;100655.34;5055858;28;20063;-83
2022/04/14 04:26:56;;;;;;;17.60;11.90;;;;;;;14.73;72.13;100642.13;5055765;28;20053;-83
2022/04/14 04:29:24;;;;;;;14.77;11.15;;;;;;;14.72;72.35;100643.28;5055579;28;20389;-82
2022/04/14 04:31:52;;;;;;;15.50;11.43;;;;;;;14.74;72.46;100641.81;5055143;28;20053;-82
2022/04/14 04:34:20;;;;;;;17.30;11.77;;;;;;;14.75;72.37;100637.00;5056011;28;20060;-82
2022/04/14 04:36:47;;;;;;;14.52;11.50;;;;;;;14.79;72.51;100643.59;5055300;28;20474;-82
2022/04/14 04:39:15;;;;;;;14.57;11.25;;;;;;;14.83;72.95;100661.38;5055117;28;20053;-81
2022/04/14 04:41:42;;;;;;;15.10;11.75;;;;;;;14.86;72.74;100665.47;5054217;28;20045;-82
2022/04/14 04:44:10;;;;;;;14.63;10.98;;;;;;;14.90;72.50;100669.25;5054425;28;20057;-81
2022/04/14 04:46:37;;;;;;;15.65;10.93;;;;;;;14.94;72.20;100673.84;5054095;28;20060;-81
2022/04/14 04:49:06;;;;;;;14.98;10.45;;;;;;;14.98;72.05;100679.59;5054719;28;20060;-81
2022/04/14 04:51:33;;;;;;;15.25;11.00;;;;;;;15.00;72.03;100682.88;5054641;28;20473;-81
2022/04/14 04:54:01;;;;;;;13.77;10.23;;;;;;;15.00;71.78;100689.31;5054599;28;20060;-81
2022/04/14 04:56:28;;;;;;;14.73;11.50;;;;;;;14.96;71.22;100684.72;5054398;28;20068;-80
2022/04/14 04:58:56;;;;;;;12.98;11.10;;;;;;;14.87;71.13;100683.97;5054428;28;20045;-81
2022/04/14 05:01:23;;;;;;;17.77;12.55;;;;;;;14.71;72.00;100684.53;5054871;28;20359;-81
2022/04/14 05:03:50;;;;;;;13.52;10.73;;;;;;;14.69;71.74;100688.81;5054756;28;20059;-80
2022/04/14 05:06:19;;;;;;;15.35;11.57;;;;;;;14.65;71.96;100694.28;5054249;28;20517;-82
2022/04/14 05:08:46;;;;;;;17.58;11.50;;;;;;;14.64;72.27;100705.84;5055222;28;20053;-81
2022/04/14 05:11:14;;;;;;;13.02;11.70;;;;;;;14.63;72.73;100710.59;5054101;28;20053;-81
2022/04/14 05:13:41;;;;;;;15.90;12.40;;;;;;;14.65;72.47;100713.09;5055017;28;20105;-81
2022/04/14 05:16:09;;;;;;;14.57;12.65;;;;;;;14.65;72.49;100705.50;5055279;28;20425;-81
2022/04/14 05:18:36;;;;;;;14.88;11.93;;;;;;;14.67;72.76;100710.78;5054914;28;20057;-81
2022/04/14 05:21:04;;;;;;;13.52;11.52;;;;;;;14.66;72.31;100714.72;5057534;28;20501;-82
2022/04/14 05:23:32;;;;;;;12.90;11.05;;;;;;;14.65;72.50;100722.31;5058688;28;20489;-81
2022/04/14 05:26:00;;;;;;;13.57;11.75;;;;;;;14.64;72.62;100717.06;5057574;28;20048;-82
2022/04/14 05:28:27;;;;;;;16.83;12.50;;;;;;;14.60;72.55;100720.53;5059051;28;20053;-81
2022/04/14 05:30:54;;;;;;;13.05;10.80;;;;;;;14.60;72.55;100725.31;5058671;28;20049;-81
2022/04/14 05:33:22;;;;;;;12.80;10.35;;;;;;;14.60;73.07;100728.94;5058912;28;20052;-82
2022/04/14 05:35:52;;;;;;;14.25;11.63;;;;;;;14.64;73.16;100726.28;5058356;28;20497;-82
2022/04/14 05:38:19;;;;;;;13.73;11.73;;;;;;;14.65;72.90;100727.09;5058164;28;20128;-82
2022/04/14 05:40:51;;;;;;;15.05;11.70;;;;;;;14.69;72.57;100736.50;5057163;28;20052;-82
2022/04/14 05:43:20;;;;;;;13.85;11.68;;;;;;;14.72;72.47;100731.03;5065558;28;20063;-82
2022/04/14 05:45:48;;;;;;;15.00;11.15;;;;;;;14.73;72.74;100734.66;5058746;28;20064;-81
2022/04/14 05:48:16;;;;;;;13.07;10.27;;;;;;;14.77;73.03;100742.06;5057685;28;20053;-82
2022/04/14 05:50:44;;;;;;;16.35;10.90;;;;;;;14.79;73.02;100744.53;5060969;28;20056;-82
2022/04/14 05:53:12;;;;;;;12.48;9.95;;;;;;;14.84;73.12;100751.94;5058121;28;20501;-82
2022/04/14 05:55:41;;;;;;;12.00;9.07;;;;;;;14.87;73.15;100757.69;5058025;28;20044;-82
2022/04/14 05:58:10;;;;;;;13.63;11.45;;;;;;;14.91;72.94;100753.06;5069464;28;20049;-81
2022/04/14 06:00:38;;;;;;;15.63;10.07;;;;;;;14.97;72.61;100745.25;5057383;28;20053;-81
2022/04/14 06:03:05;;;;;;;10.10;9.02;;;;;;;14.98;72.73;100742.13;5057994;28;20051;-82
2022/04/14 06:05:34;;;;;;;11.32;9.63;;;;;;;15.02;72.52;100742.28;5056985;28;20665;-81
2022/04/14 06:08:04;;;;;;;12.40;10.10;;;;;;;15.11;72.12;100742.22;5058332;28;20052;-82
2022/04/14 06:10:31;;;;;;;12.00;9.18;;;;;;;15.13;71.89;100742.72;5057761;28;20053;-81
2022/04/14 06:12:58;;;;;;;11.02;9.50;;;;;;;15.16;71.67;100737.25;5057655;28;20048;-81
2022/04/14 06:15:27;;;;;;;12.57;9.77;;;;;;;15.25;71.81;100739.19;5064524;28;20052;-82
2022/04/14 06:17:55;;;;;;;12.77;11.20;;;;;;;15.30;71.43;100742.59;5064783;28;20049;-81
2022/04/14 06:20:22;;;;;;;12.75;9.52;;;;;;;15.35;71.20;100750.84;5057270;28;20499;-82
2022/04/14 06:22:49;;;;;;;13.75;10.38;;;;;;;15.44;70.92;100742.34;5060996;28;20494;-85
2022/04/14 06:25:22;;;;;;;12.23;9.85;;;;;;;15.54;70.70;100757.97;5065317;28;20049;-84
2022/04/14 06:27:53;;;;;;;11.07;9.40;;;;;;;15.59;70.74;100754.97;5066725;28;20052;-84
2022/04/14 06:30:21;;;;;;;12.55;10.68;;;;;;;15.64;70.05;100757.56;5068402;28;20103;-84
2022/04/14 06:32:57;;;;;;;13.30;11.02;;;;;;;15.66;69.64;100763.66;5068426;28;20053;-85
2022/04/14 06:35:25;;;;;;;12.13;10.18;;;;;;;15.70;69.67;100753.38;5068133;28;20066;-85
2022/04/14 06:37:56;;;;;;;14.45;10.57;;;;;;;15.78;69.41;100760.94;5065654;28;20048;-84
2022/04/14 06:40:24;;;;;;;14.73;10.18;;;;;;;15.83;69.14;100763.56;5067238;28;20040;-83
2022/04/14 06:42:51;;;;;;;11.75;9.95;;;;;;;15.83;68.89;100751.50;5059011;28;20053;-84
2022/04/14 06:45:19;;;;;;;12.63;9.98;;;;;;;15.86;68.97;100753.63;5061325;28;20060;-83
2022/04/14 06:47:46;;;;;;;13.57;11.45;;;;;;;15.83;68.95;100757.97;5058456;28;20049;-82
2022/04/14 06:50:15;;;;;;;14.13;11.75;;;;;;;15.93;68.78;100747.47;5057926;28;20063;-81
2022/04/14 06:52:42;;;;;;;12.37;11.03;;;;;;;15.97;68.75;100760.47;5059330;28;20053;-82
2022/04/14 06:55:10;;;;;;;16.10;13.25;;;;;;;16.01;68.56;100766.22;5058426;28;20045;-81
2022/04/14 06:57:38;;;;;;;14.27;11.60;;;;;;;16.06;68.48;100768.81;5059123;28;20053;-83
2022/04/14 07:00:07;;;;;;;14.40;12.55;;;;;;;16.14;68.49;100762.28;5058793;28;20056;-82
2022/04/14 07:02:45;;;;;;;15.73;13.07;;;;;;;16.17;68.32;100761.63;5057129;28;20048;-82
2022/04/14 07:05:12;;;;;;;15.07;11.88;;;;;;;16.22;68.02;100766.19;5053685;28;20508;-80
2022/04/14 07:07:41;;;;;;;15.52;12.88;;;;;;;16.30;68.26;100767.28;5053529;28;20059;-80
2022/04/14 07:10:10;;;;;;;16.70;13.80;;;;;;;16.36;67.71;100769.53;5048770;28;20057;-80
2022/04/14 07:12:39;;;;;;;17.67;13.07;;;;;;;16.40;67.55;100773.28;5049730;28;20079;-81
2022/04/14 07:15:08;;;;;;;14.27;12.50;;;;;;;16.46;67.33;100776.69;5050461;28;20056;-80
2022/04/14 07:17:36;;;;;;;13.38;11.13;;;;;;;16.54;67.37;100778.59;5051867;28;20479;-81
2022/04/14 07:20:05;;;;;;;15.13;12.15;;;;;;;16.62;67.18;100783.28;5050027;28;20065;-81
2022/04/14 07:22:43;;;;;;;15.38;12.95;;;;;;;16.83;66.74;100777.63;5051519;28;20056;-81
2022/04/14 07:25:12;;;;;;;23.40;18.17;;;;;;;16.86;65.98;100784.53;5050919;28;20045;-81
2022/04/14 07:27:40;;;;;;;22.13;17.95;;;;;;;17.03;65.34;100773.09;5050674;28;20078;-80
2022/04/14 07:30:09;;;;;;;21.52;16.95;;;;;;;17.24;64.40;100777.78;5047194;28;20041;-81
2022/04/14 07:32:38;;;;;;;24.13;18.40;;;;;;;17.47;63.89;100766.00;5050869;28;20421;-81
2022/04/14 07:35:07;;;;;;;25.37;19.43;;;;;;;17.75;62.96;100763.28;5050534;28;20056;-81
2022/04/14 07:37:36;;;;;;;28.27;20.50;;;;;;;17.86;62.60;100764.44;5049675;28;20152;-81
2022/04/14 07:40:07;;;;;;;32.92;23.98;;;;;;;18.32;61.06;100767.78;5051237;28;20067;-82
2022/04/14 07:42:36;;;;;;;31.45;23.98;;;;;;;18.67;59.88;100767.13;5050348;28;21083;-82
2022/04/14 07:45:05;;;;;;;33.17;23.52;;;;;;;19.06;58.72;100768.16;5051273;28;20429;-81
2022/04/14 07:47:33;;;;;;;32.67;25.50;;;;;;;19.12;57.72;100770.72;5049984;28;20057;-83
2022/04/14 07:50:00;;;;;;;39.83;30.05;;;;;;;19.64;56.60;100764.69;5050484;28;20405;-80
2022/04/14 07:52:28;;;;;;;36.97;27.55;;;;;;;19.94;55.92;100771.81;5049599;28;20505;-81
2022/04/14 07:54:57;;;;;;;39.70;29.33;;;;;;;20.31;54.30;100772.19;5049984;28;20429;-81
2022/04/14 07:57:26;;;;;;;41.42;29.35;;;;;;;20.70;53.70;100776.97;5049240;28;20049;-81
2022/04/14 07:59:53;;;;;;;39.08;29.48;;;;;;;21.17;52.25;100775.78;5050567;28;20053;-81
2022/04/14 08:02:21;;;;;;;32.53;25.98;;;;;;;21.74;51.48;100771.03;5047694;28;20055;-81
2022/04/14 08:04:48;;;;;;;33.38;25.80;;;;;;;22.34;50.04;100764.50;5050312;28;20486;-81
2022/04/14 08:07:15;;;;;;;35.10;26.98;;;;;;;22.88;48.28;100770.75;5051184;28;20413;-81
2022/04/14 08:09:43;;;;;;;36.38;29.75;;;;;;;23.32;46.54;100769.09;5046688;28;20057;-80
2022/04/14 08:12:12;;;;;;;41.97;32.05;;;;;;;23.67;45.13;100768.53;5051263;28;20049;-81
2022/04/14 08:14:41;;;;;;;36.55;29.88;;;;;;;23.71;44.89;100773.03;5055476;28;20064;-82
2022/04/14 08:17:08;;;;;;;36.22;28.58;;;;;;;23.65;44.82;100766.09;5056277;28;20049;-82
2022/04/14 08:19:40;;;;;;;37.60;29.05;;;;;;;23.62;44.38;100766.88;5055179;28;20064;-84
2022/04/14 08:22:07;;;;;;;39.03;31.00;;;;;;;23.45;44.78;100770.41;5056138;28;20049;-82
2022/04/14 08:24:35;;;;;;;36.65;28.55;;;;;;;23.24;45.02;100769.03;5055765;28;20048;-83
2022/04/14 08:27:03;;;;;;;39.67;30.45;;;;;;;23.17;44.23;100773.88;5055515;28;20060;-84
2022/04/14 08:29:31;;;;;;;36.50;27.95;;;;;;;22.79;45.10;100773.09;5055876;28;20131;-82
2022/04/14 08:32:03;;;;;;;39.38;29.20;;;;;;;22.56;45.53;100773.28;5056909;28;20052;-86
2022/04/14 08:34:30;;;;;;;38.33;30.85;;;;;;;22.18;46.75;100776.06;5054986;28;20045;-83
2022/04/14 08:36:57;;;;;;;38.53;30.65;;;;;;;22.03;46.88;100775.06;5055155;28;20053;-83
2022/04/14 08:39:25;;;;;;;41.13;31.33;;;;;;;21.85;47.61;100786.16;5055147;28;20055;-83
2022/04/14 08:42:05;;;;;;;39.03;30.52;;;;;;;22.00;47.19;100780.69;5054068;28;20048;-83
2022/04/14 08:44:37;;;;;;;38.15;29.20;;;;;;;22.29;47.03;100776.22;5045104;28;20479;-82
2022/04/14 08:47:08;;;;;;;35.90;28.63;;;;;;;22.60;46.64;100780.63;5056044;28;20060;-83
2022/04/14 08:49:36;;;;;;;34.88;27.90;;;;;;;23.48;44.50;100781.00;5056288;28;20049;-82
2022/04/14 08:52:04;;;;;;;31.77;26.98;;;;;;;24.09;43.95;100772.84;5056170;28;20064;-81
2022/04/14 08:54:33;;;;;;;36.43;29.00;;;;;;;24.78;41.05;100771.84;5044767;28;20049;-81
2022/04/14 08:57:02;;;;;;;35.88;27.73;;;;;;;26.19;38.04;100775.38;5040642;28;20464;-84
2022/04/14 08:59:30;;;;;;;32.22;28.13;;;;;;;27.12;35.87;100766.22;5059694;28;20049;-87
2022/04/14 09:02:06;;;;;;;35.17;28.45;;;;;;;28.06;34.00;100766.13;5061145;28;20056;-86
2022/04/14 09:04:38;;;;;;;31.10;25.42;;;;;;;28.63;34.18;100759.63;5058313;28;20045;-83
2022/04/14 09:07:06;;;;;;;30.40;25.65;;;;;;;30.56;30.07;100763.03;5060040;28;20053;-81
2022/04/14 09:09:33;;;;;;;24.17;21.75;;;;;;;32.23;27.90;100761.97;5058155;28;20516;-84
2022/04/14 09:12:01;;;;;;;25.73;22.95;;;;;;;33.72;25.21;100757.50;5056051;28;20056;-82
2022/04/14 09:14:31;;;;;;;29.25;26.20;;;;;;;34.61;23.46;100760.34;5059675;28;20044;-82
2022/04/14 09:16:58;;;;;;;23.33;21.08;;;;;;;35.34;23.05;100756.94;5059050;28;20053;-81
2022/04/14 09:19:30;;;;;;;26.63;23.95;;;;;;;36.47;21.95;100757.22;5057631;28;20076;-87
2022/04/14 09:21:59;;;;;;;23.75;21.52;;;;;;;36.32;21.72;100757.91;5058621;28;20049;-82
2022/04/14 09:24:44;;;;;;;23.25;21.08;;;;;;;36.10;22.24;100754.34;5057565;28;20075;-81
2022/04/14 09:27:27;;;;;;;23.58;21.27;;;;;;;35.53;21.78;100755.69;5058772;28;20489;-81
2022/04/14 09:29:56;;;;;;;22.02;19.75;;;;;;;34.58;22.20;100762.09;5057204;28;20048;-80
2022/04/14 09:32:31;;;;;;;26.52;23.73;;;;;;;34.99;22.44;100751.38;5056998;28;20049;-80
2022/04/14 09:35:04;;;;;;;22.30;20.10;;;;;;;35.71;21.52;100749.09;5060083;28;20049;-83
2022/04/14 09:37:32;;;;;;;27.67;22.90;;;;;;;36.91;20.53;100748.00;5058249;28;20489;-82
2022/04/14 09:40:02;;;;;;;22.25;18.83;;;;;;;37.92;19.16;100740.69;5057433;28;20053;-81
2022/04/14 09:42:31;;;;;;;20.33;18.23;;;;;;;38.26;18.16;100735.50;5058307;28;20484;-82
2022/04/14 09:45:19;;;;;;;19.88;17.80;;;;;;;38.88;17.41;100728.59;5058753;28;20053;-83
2022/04/14 09:47:48;;;;;;;18.50;16.55;;;;;;;39.38;17.42;100743.09;5061255;28;20056;-85
2022/04/14 09:50:28;;;;;;;20.52;18.02;;;;;;;39.95;17.33;100735.84;5052665;28;20045;-84
2022/04/14 09:53:07;;;;;;;20.52;18.38;;;;;;;40.47;16.34;100735.03;5060675;28;20056;-85
2022/04/14 09:55:35;;;;;;;21.55;19.45;;;;;;;40.38;15.41;100741.88;5056163;28;20041;-84
2022/04/14 09:58:11;;;;;;;20.30;18.35;;;;;;;40.18;15.44;100733.16;5052983;28;20057;-84
2022/04/14 10:00:41;;;;;;;15.82;14.40;;;;;;;39.74;16.87;100729.22;5053267;28;20041;-83
2022/04/14 10:03:10;;;;;;;17.55;15.85;;;;;;;40.51;15.71;100723.09;5072329;28;20052;-83
2022/04/14 10:05:39;;;;;;;15.35;13.80;;;;;;;40.40;14.70;100728.84;5066856;28;20056;-82
2022/04/14 10:08:08;;;;;;;14.10;12.77;;;;;;;38.45;16.53;100724.44;5058899;28;20059;-83
2022/04/14 10:10:38;;;;;;;13.55;12.35;;;;;;;37.85;17.23;100721.53;5057922;28;20060;-83
2022/04/14 10:13:10;;;;;;;11.75;10.55;;;;;;;38.09;17.21;100724.38;5050209;28;20049;-83
2022/04/14 10:15:38;;;;;;;11.60;10.50;;;;;;;38.58;17.10;100719.16;5055734;28;20048;-80
2022/04/14 10:18:08;;;;;;;12.18;10.93;;;;;;;38.14;16.57;100712.03;5057539;28;20067;-79
2022/04/14 10:20:37;;;;;;;14.75;13.07;;;;;;;38.67;17.00;100719.03;5053501;28;20045;-81
2022/04/14 10:23:09;;;;;;;14.27;12.98;;;;;;;39.39;16.88;100709.69;5037522;28;20057;-80
2022/04/14 10:25:37;;;;;;;13.88;12.40;;;;;;;40.35;16.19;100704.16;5056283;28;20168;-81
2022/04/14 10:28:07;;;;;;;9.20;8.35;;;;;;;41.37;15.09;100705.59;5057989;28;20055;-83
2022/04/14 10:30:35;;;;;;;12.23;10.23;;;;;;;41.59;14.46;100707.81;5057429;28;20052;-82
2022/04/14 10:33:02;;;;;;;10.93;9.82;;;;;;;41.16;13.69;100697.00;5057870;28;20064;-81
2022/04/14 10:35:32;;;;;;;10.60;9.13;;;;;;;41.03;14.55;100701.69;5056235;28;20061;-79
2022/04/14 10:38:13;;;;;;;10.25;9.30;;;;;;;40.95;14.20;100693.44;5056189;28;20048;-78
2022/04/14 10:40:47;;;;;;;7.78;7.05;;;;;;;40.83;14.23;100699.75;5056786;28;20512;-79
2022/04/14 10:43:20;;;;;;;7.22;6.20;;;;;;;41.22;14.07;100699.16;5050978;28;20056;-79
2022/04/14 10:45:50;;;;;;;7.03;6.13;;;;;;;41.94;14.07;100695.66;5052768;28;20397;-79
2022/04/14 10:48:31;;;;;;;6.95;6.22;;;;;;;42.14;14.04;100694.63;5053916;28;20045;-78
2022/04/14 10:51:23;;;;;;;6.80;6.20;;;;;;;40.51;14.80;100709.31;5054086;28;20469;-79
2022/04/14 10:53:57;;;;;;;8.32;7.53;;;;;;;39.45;15.37;100709.81;5052968;28;20465;-79
2022/04/14 10:56:58;;;;;;;7.93;7.13;;;;;;;37.79;16.92;100711.91;5053216;28;20056;-79
2022/04/14 10:59:51;;;;;;;7.78;6.88;;;;;;;37.05;17.54;100703.72;4972087;28;20186;-79
2022/04/14 11:02:18;;;;;;;7.75;7.05;;;;;;;35.79;17.93;100708.22;4971395;28;20055;-79
2022/04/14 11:04:53;;;;;;;8.03;7.23;;;;;;;34.53;19.96;100716.47;5022859;28;20513;-78
2022/04/14 11:07:22;;;;;;;8.18;6.93;;;;;;;33.52;20.87;100714.47;5052027;28;20049;-79
2022/04/14 11:09:53;;;;;;;8.05;6.45;;;;;;;32.72;20.99;100706.91;5052702;28;20405;-78
2022/04/14 11:12:22;;;;;;;7.82;6.80;;;;;;;31.81;21.80;100707.19;5053286;28;20056;-79
2022/04/14 11:14:54;;;;;;;7.25;6.03;;;;;;;30.99;23.68;100704.50;5053973;28;20049;-78
2022/04/14 11:17:52;;;;;;;7.70;7.00;;;;;;;30.55;23.65;100701.88;5051306;28;20398;-78
2022/04/14 11:20:24;;;;;;;7.20;6.50;;;;;;;31.94;23.85;100692.81;5051658;28;20481;-78
2022/04/14 11:23:08;;;;;;;8.73;7.07;;;;;;;33.44;21.59;100678.47;5051834;28;20485;-78
2022/04/14 11:25:48;;;;;;;7.50;6.80;;;;;;;34.73;20.60;100687.94;5055332;28;20516;-80
2022/04/14 11:28:24;;;;;;;8.15;7.30;;;;;;;36.32;18.67;100681.66;5052816;28;20048;-80